Shoshone, California Weather observations

Data are for observation ending at time listed.
 Day   Time    Ave.   Ave.  Ave.  Vector   Max.   Stn.    Total    Solar   Ave.  
  of    of     Air    Rel.  Wind   Wind    Wind   Baro.  Precip.   Rad.    Soil  
Year   Day     Temp.  Hum.  Speed  Dir.    Gust   Pres.                    Temp. 
2026   (PST)    F      %     mph   deg.    mph     mb.     in.     W/m2     F   
------------------------------------------------------------------------------
 124    5:10   60.4    48    3.0   171      7.7    964     0.00      13    40.5
 124    5:20   60.3    49    3.5   173      9.9    964     0.00      22    40.2
 124    5:30   60.3    49    3.6   168      7.5    964     0.00      38    40.1
 124    5:40   60.5    48    3.4   167      7.9    964     0.00      47    40.2
 124    5:50   60.6    48    2.5   163      7.7    964     0.00      56    40.4
 124    6:00   60.5    48    3.0   166      8.6    964     0.00      58    40.7
 124    6:10   60.5    48    3.0   167      9.8    964     0.00      69    41.0
 124    6:20   60.8    47    1.7   170      7.7    964     0.00      96    41.3
 124    6:30   60.9    47    4.9   164     13.4    964     0.00     116    41.9
 124    6:40   61.0    47    3.4   168     10.9    964     0.00     159    42.6
 124    6:50   61.4    47    4.6   168     13.2    964     0.00     146    43.5
 124    7:00   61.3    47    5.8   167     12.8    964     0.00     189    44.3
 124    7:10   62.0    45    5.4   170     12.1    965     0.00     226    45.3
 124    7:20   62.4    44    6.5   170     13.9    965     0.00     321    46.7
 124    7:30   63.2    44    4.5   163     12.6    965     0.00     329    48.3
 124    7:40   63.4    43    2.3   161      8.9    965     0.00     323    50.0
 124    7:50   65.1    41    1.7   160      7.3    965     0.00     468    51.6
 124    8:00   65.8    40    3.4   168     10.4    965     0.00     438    53.8
 124    8:10   66.1    39    3.3   167      9.1    965     0.00     457    56.0
 124    8:20   66.7    38    3.2   164      9.9    965     0.00     578    58.1
 124    8:30   67.9    36    3.6   178     10.7    965     0.00     548    60.4
 124    8:40   67.3    36    4.3   219      8.6    965     0.00     583    62.5
 124    8:50   67.2    36    4.8   192     10.8    965     0.00     687    64.3
 124    9:00   67.8    34    3.8   187     12.6    965     0.00     663    65.8
 124    9:10   68.6    35    3.8   166     10.1    965     0.00     771    67.2
 124    9:20   69.2    34    4.6   170     11.0    965     0.00     773    68.6
 124    9:30   69.5    34    4.2   163     11.2    965     0.00     793    69.8
 124    9:40   69.7    33    3.0   162     11.2    965     0.00     762    70.7
 124    9:50   70.0    33    5.3   161     10.4    965     0.00     846    71.5
 124   10:00   69.5    33    5.4   161     14.2    965     0.00     827    72.0
 124   10:10   69.8    32    6.1   175     14.0    965     0.00     885    71.9
 124   10:20   71.1    31    5.1   172     12.3    965     0.00     910    71.7
 124   10:30   72.9    30    2.7   144     11.8    965     0.00     919    71.6
 124   10:40   73.1    29    4.1   168     12.4    965     0.00     936    71.8
 124   10:50   73.0    29    4.2   160     13.8    964     0.00     959    72.1
 124   11:00   73.3    29    6.1   166     20.0    964     0.00     947    72.3
 124   11:10   73.9    28    6.2   171     14.9    964     0.00     931    72.2
 124   11:20   73.9    28    4.9   168     13.2    964     0.00     882    72.2
 124   11:30   75.1    27    2.6   137      9.6    964     0.00     831    72.2
 124   11:40   75.8    26    3.9   170     13.4    964     0.00     864    72.6
 124   11:50   75.6    25    5.5   178     15.9    964     0.00     903    73.2
 124   12:00   74.6    25    6.5   195     16.1    964     0.00     857    73.7
 124   12:10   75.4    25    8.4   182     28.3    964     0.00     973    73.8
 124   12:20   74.8    25    9.3   188     18.3    964     0.00     938    73.8
 124   12:30   77.0    23    4.3   176     15.6    963     0.00     970    73.5
 124   12:40   76.9    22    4.1   158      9.1    963     0.00     949    74.2
 124   12:50   76.3    22   11.0   185     22.0    963     0.00     896    75.3
 124   13:00   77.5    22    5.7   212     14.2    963     0.00     933    76.2
 124   13:10   79.1    20    4.2   184     14.8    963     0.00     913    77.5
 124   13:20   79.2    19    9.9   173     19.8    963     0.00     902    79.1
 124   13:30   78.2    19   12.1   189     18.6    963     0.00     897    80.2
 124   13:40   78.2    19    9.7   191     20.7    963     0.00     883    80.4
 124   13:50   78.9    19   12.2   184     22.3    963     0.00     817    80.5
 124   14:00   78.2    18   10.3   192     20.8    963     0.00     784    80.4
 124   14:10   77.7    17    9.4   199     18.8    962     0.00     808    80.2
 124   14:20   78.3    17    9.4   203     20.8    962     0.00     613    80.0
 124   14:30   78.3    16   10.1   202     23.5    962     0.00     694    79.6
 124   14:40   77.9    16   12.6   189     27.5    962     0.00     818    79.2
 124   14:50   78.6    16   10.9   196     23.2    962     0.00     787    79.1
 124   15:00   78.4    15   13.5   185     21.9    962     0.00     733    79.3
 124   15:10   78.6    15    9.3   197     17.5    962     0.00     676    79.3
 124   15:20   77.8    15   10.9   195     23.8    962     0.00     631    79.2
 124   15:30   77.8    14    9.6   203     24.6    962     0.00     602    78.8
 124   15:40   77.3    14   10.2   193     23.8    962     0.00     568    78.2
 124   15:50   77.8    14   11.6   191     20.8    962     0.00     534    77.7
 124   16:00   77.4    15    9.4   210     17.2    962     0.00     496    77.1
 124   16:10   76.9    16    9.9   203     18.2    962     0.00     462    76.7
 124   16:20   76.5    16   12.2   192     20.5    962     0.00     427    76.1
 124   16:30   76.7    16   10.8   215     25.1    962     0.00     393    75.5
 124   16:40   76.4    18   10.6   216     19.6    962     0.00     356    74.8
 124   16:50   75.5    19    8.4   206     17.9    962     0.00     319    74.1
 124   17:00   75.4    19    9.5   198     19.5    962     0.00     282    73.3
 124   17:10   75.1    19    9.3   208     17.5    962     0.00     247    72.4
 124   17:20   74.8    20    8.9   219     22.2    962     0.00     212    71.5
 124   17:30   74.4    20   10.5   221     22.2    962     0.00     177    70.6
 124   17:40   73.9    21    8.8   214     18.6    962     0.00     145    69.5
 124   17:50   73.3    22    9.4   216     18.3    962     0.00     113    68.4
 124   18:00   72.7    22    9.2   215     18.1    962     0.00      80    67.2
 124   18:10   72.0    23    9.7   213     18.3    962     0.00      51    65.8
 124   18:20   71.4    24    8.6   222     19.3    962     0.00      28    64.3
 124   18:30   70.6    25    7.7   215     17.7    962     0.00      10    62.6
 124   18:40   70.1    26    7.9   210     15.8    962     0.00       6    60.7
 124   18:50   69.7    26    8.2   217     16.2    962     0.00       0    58.9
 124   19:00   69.3    27    9.6   223     19.4    962     0.00       0    57.3
 124   19:10   68.8    27    8.9   226     18.2    963     0.00       0    56.0
 124   19:20   68.4    28    8.8   207     17.6    963     0.00       0    54.8
 124   19:30   68.2    28    8.5   202     16.9    963     0.00       0    53.8
 124   19:40   67.9    29    8.0   202     15.1    963     0.00       0    53.0
 124   19:50   67.6    30    7.3   195     14.7    963     0.00       0    52.3
 124   20:00   67.3    30    7.2   194     11.9    963     0.00       0    51.6
 124   20:10   66.9    31    8.8   193     14.8    964     0.00       0    50.9
 124   20:20   66.6    32   10.0   191     18.9    964     0.00       0    50.4
 124   20:30   66.3    32   10.7   187     20.6    964     0.00       0    50.1
 124   20:40   65.8    33   11.3   187     19.6    964     0.00       0    49.7
 124   20:50   65.6    33   12.2   186     21.1    964     0.00       0    49.2
 124   21:00   65.2    33   10.5   190     20.4    964     0.00       0    48.9
 124   21:10   64.8    34   12.6   186     20.3    964     0.00       0    48.5
 124   21:20   64.1    36   10.7   186     19.3    964     0.00       0    48.0
 124   21:30   63.7    38   10.2   185     18.0    964     0.00       0    47.5
 124   21:40   63.5    38    9.7   187     17.8    964     0.00       0    46.8
 124   21:50   63.4    39    8.0   212     16.5    964     0.00       0    46.2
 124   22:00   63.1    39    8.0   215     18.0    964     0.00       0    45.7
 124   22:10   63.0    40    7.1   192     11.5    964     0.00       0    45.2
 124   22:20   62.9    39    7.4   188     12.0    964     0.00       0    44.7
 124   22:30   62.7    40    6.0   186     11.6    965     0.00       0    44.4
 124   22:40   62.1    41    1.0   145      3.1    965     0.00       0    43.9
 124   22:50   61.4    42    2.1   178      7.0    965     0.00       0    42.9
 124   23:00   61.4    43    4.8   190      9.1    965     0.00       0    41.9
 124   23:10   61.3    43    6.2   184      9.0    964     0.00       0    41.2
 124   23:20   61.4    43    4.5   185      7.7    965     0.00       0    40.9
 124   23:30   61.4    43    3.2   215      7.0    965     0.00       0    40.7
 124   23:40   60.2    46    2.4   313      5.3    965     0.00       0    40.4
 124   23:50   58.3    49    2.1   297      4.2    965     0.00       0    39.7
 125    0:00   57.9    49    4.2   274      6.8    965     0.00       0    38.6
 125    0:10   59.0    48    2.2   216      5.3    965     0.00       0    37.6
 125    0:20   58.8    49    1.0   134      3.0    965     0.00       0    36.7
 125    0:30   58.3    50    0.8   166      3.9    964     0.00       0    36.0
 125    0:40   58.7    48    1.2   176      4.7    964     0.00       0    35.1
 125    0:50   59.4    46    2.6   167      4.8    964     0.00       0    34.6
 125    1:00   58.9    47    1.7   161      4.5    964     0.00       0    34.6
 125    1:10   58.6    48    0.4   138      2.0    964     0.00       0    34.7
 125    1:20   58.4    48    0.7   329      3.1    964     0.00       0    34.5
 125    1:30   57.8    49    0.4    21      1.5    964     0.00       0    34.4
 125    1:40   57.7    50    0.4   125      2.0    964     0.00       0    34.2
 125    1:50   57.2    50    0.7    84      3.0    964     0.00       0    34.0
 125    2:00   57.6    50    1.3   192      4.8    964     0.00       0    33.7
 125    2:10   59.0    47    4.2   191     11.2    964     0.00       0    33.7
 125    2:20   59.5    47    5.1   188      8.9    964     0.00       0    34.5
 125    2:30   59.1    48    2.6   182      6.5    964     0.00       0    35.5
 125    2:40   58.0    50    0.5   159      1.8    964     0.00       0    36.2
 125    2:50   57.3    51    0.4   175      2.7    964     0.00       0    36.2
 125    3:00   57.4    51    0.0   174      1.1    964     0.00       0    35.8
 125    3:10   57.1    51    0.9    84      2.3    964     0.00       0    35.3
 125    3:20   56.8    51    1.5    34      5.0    964     0.00       0    34.9
 125    3:30   56.4    52    2.8    34      4.7    964     0.00       0    34.6
 125    3:40   55.3    54    0.5    51      1.8    964     0.00       0    34.3
 125    3:50   54.0    56    0.8   290      2.1    964     0.00       0    33.7
 125    4:00   53.7    57    2.6    23      3.9    964     0.00       0    32.8
 125    4:10   55.0    55    2.1    46      4.0    964     0.00       0    32.1
 125    4:20   53.7    57    1.5   123      3.1    964     0.00       0    31.7
 125    4:30   53.5    58    0.1   134      1.5    964     0.00       0    31.2
 125    4:40   53.5    58    0.5   145      1.8    964     0.00       4    30.5
 125    4:50   53.4    57    0.9    82      2.3    964     0.00       7    29.9
 125    5:00   54.5    56    0.2   110      1.5    964     0.00      15    29.6

Return to Shoshone, California graphs page.


Western Regional Climate Center,wrcc@dri.edu